Time;durP1;ratioP1;P1;durP2;ratioP2;P2;SDS_P1;SDS_P2;PMS_P1;PMS_P2;Temp;Humidity;BMP_temperature;BMP_pressure;BME280_temperature;BME280_humidity;BME280_pressure;Samples;Min_cycle;Max_cycle;Signal;HPM_P1;HPM_P2
2022/01/20 00:00:44;;;;;;;14.10;3.20;;;4.80;99.90;;;;;;4994427;28;20254;-72
2022/01/20 00:03:14;;;;;;;11.50;2.50;;;4.80;99.90;;;;;;4995190;28;20203;-73
2022/01/20 00:27:19;;;;;;;8.43;3.60;;;4.60;99.90;;;;;;5014160;28;20255;-73
2022/01/20 00:32:14;;;;;;;12.63;3.23;;;4.60;99.90;;;;;;5013860;28;20234;-73
2022/01/20 00:37:29;;;;;;;11.83;4.03;;;4.60;99.90;;;;;;5013772;28;20634;-73
2022/01/20 00:39:56;;;;;;;18.77;4.10;;;4.60;99.90;;;;;;4995097;28;20175;-73
2022/01/20 00:42:22;;;;;;;15.67;4.47;;;4.70;99.90;;;;;;4996394;28;20176;-72
2022/01/20 00:44:48;;;;;;;14.80;3.73;;;4.70;99.90;;;;;;5013266;28;20349;-73
2022/01/20 00:47:15;;;;;;;12.17;4.00;;;4.70;99.90;;;;;;4995230;28;20585;-73
2022/01/20 00:49:42;;;;;;;13.77;3.60;;;4.70;99.90;;;;;;5012695;28;20343;-74
2022/01/20 00:52:08;;;;;;;18.73;4.10;;;4.70;99.90;;;;;;5013535;28;20217;-73
2022/01/20 00:54:34;;;;;;;17.30;3.90;;;4.70;99.90;;;;;;4995988;28;20180;-73
2022/01/20 00:57:00;;;;;;;20.93;3.63;;;4.70;99.90;;;;;;4995620;28;20225;-73
2022/01/20 00:59:28;;;;;;;19.83;4.73;;;4.70;99.90;;;;;;5012327;28;20689;-73
2022/01/20 01:01:54;;;;;;;15.90;3.40;;;4.60;99.90;;;;;;4995863;28;20208;-73
2022/01/20 01:04:19;;;;;;;11.37;2.67;;;4.60;99.90;;;;;;5013089;28;20692;-73
2022/01/20 01:09:29;;;;;;;13.93;3.53;;;4.60;99.90;;;;;;5013149;28;20179;-72
2022/01/20 01:12:00;;;;;;;9.07;2.60;;;4.70;99.90;;;;;;4995475;28;20206;-74
2022/01/20 01:14:28;;;;;;;15.23;3.23;;;4.60;99.90;;;;;;4994957;28;20211;-73
2022/01/20 01:24:40;;;;;;;14.37;4.13;;;4.40;99.90;;;;;;5013013;28;20192;-73
2022/01/20 01:27:07;;;;;;;15.50;2.93;;;4.30;99.90;;;;;;5012753;28;20228;-73
2022/01/20 01:32:00;;;;;;;16.47;3.43;;;4.30;99.90;;;;;;5012633;28;20216;-73
2022/01/20 01:34:29;;;;;;;14.77;3.63;;;4.30;99.90;;;;;;5012120;28;20703;-73
2022/01/20 01:39:22;;;;;;;19.57;3.77;;;4.20;99.90;;;;;;5012152;28;20216;-73
2022/01/20 01:41:48;;;;;;;20.57;4.47;;;4.20;99.90;;;;;;5012226;28;20214;-73
2022/01/20 01:44:21;;;;;;;15.60;3.73;;;4.20;99.90;;;;;;5011957;28;20213;-73
2022/01/20 01:46:48;;;;;;;18.67;3.40;;;4.20;99.90;;;;;;5012056;28;20223;-73
2022/01/20 01:49:14;;;;;;;20.13;3.90;;;4.20;99.90;;;;;;5011507;28;20258;-73
2022/01/20 01:51:39;;;;;;;21.53;4.37;;;4.10;99.90;;;;;;5012336;28;20219;-73
2022/01/20 01:54:05;;;;;;;13.23;3.07;;;4.10;99.90;;;;;;5011797;28;20198;-73
2022/01/20 01:56:30;;;;;;;17.73;3.30;;;4.10;99.90;;;;;;5011868;28;20346;-73
2022/01/20 01:58:56;;;;;;;15.33;3.00;;;4.00;99.90;;;;;;5011443;28;20783;-73
2022/01/20 02:01:22;;;;;;;16.57;3.47;;;4.00;99.90;;;;;;5011808;28;20232;-73
2022/01/20 02:03:57;;;;;;;22.27;4.40;;;4.00;99.90;;;;;;5011584;28;20818;-73
2022/01/20 02:06:43;;;;;;;14.03;3.37;;;3.90;99.90;;;;;;4994650;28;20195;-73
2022/01/20 02:09:38;;;;;;;19.87;3.30;;;3.90;99.90;;;;;;4993751;28;20632;-73
2022/01/20 02:17:58;;;;;;;20.93;3.67;;;3.80;99.90;;;;;;5011126;28;20221;-73
2022/01/20 02:20:24;;;;;;;18.40;3.10;;;3.80;99.90;;;;;;5011397;28;20694;-73
2022/01/20 02:22:51;;;;;;;15.63;2.83;;;3.80;99.90;;;;;;4993809;28;20288;-73
2022/01/20 02:25:21;;;;;;;10.90;2.80;;;3.80;99.90;;;;;;5011455;28;20304;-73
2022/01/20 02:27:47;;;;;;;12.97;3.17;;;3.90;99.90;;;;;;4993278;28;20260;-73
2022/01/20 02:30:18;;;;;;;17.20;3.30;;;3.80;99.90;;;;;;5011963;28;20180;-73
2022/01/20 02:32:58;;;;;;;11.97;3.07;;;3.70;99.90;;;;;;4993324;28;20214;-73
2022/01/20 02:35:28;;;;;;;7.87;2.27;;;3.70;99.90;;;;;;5011363;28;20616;-73
2022/01/20 02:37:59;;;;;;;12.90;2.50;;;3.70;99.90;;;;;;5010752;28;20221;-73
2022/01/20 02:44:50;;;;;;;6.97;2.17;;;3.70;99.90;;;;;;5011135;28;20682;-73
2022/01/20 02:46:10;;;;;;;18.77;3.30;;;3.60;99.90;;;;;;5010999;28;20224;-73
2022/01/20 02:48:36;;;;;;;16.87;2.63;;;3.60;99.90;;;;;;4993481;28;20232;-73
2022/01/20 02:51:02;;;;;;;10.90;2.50;;;3.60;99.90;;;;;;5011376;28;20627;-73
2022/01/20 02:53:27;;;;;;;9.90;2.20;;;3.60;99.90;;;;;;5010976;28;20218;-73
2022/01/20 02:55:53;;;;;;;10.50;2.70;;;3.60;99.90;;;;;;5011034;28;21008;-73
2022/01/20 02:58:19;;;;;;;14.37;2.47;;;3.50;99.90;;;;;;4992954;28;20220;-74
2022/01/20 03:00:45;;;;;;;13.80;2.57;;;3.50;99.90;;;;;;5011013;28;20177;-72
2022/01/20 03:03:10;;;;;;;12.57;2.60;;;3.50;99.90;;;;;;5012052;28;20189;-72
2022/01/20 03:05:36;;;;;;;11.17;2.40;;;3.50;99.90;;;;;;5012181;28;20216;-73
2022/01/20 03:08:02;;;;;;;17.60;2.43;;;3.50;99.90;;;;;;5014664;28;20448;-72
2022/01/20 03:10:29;;;;;;;6.40;2.33;;;3.40;99.90;;;;;;5014756;28;20326;-72
2022/01/20 03:12:56;;;;;;;12.10;2.10;;;3.40;99.90;;;;;;5014958;28;20184;-73
2022/01/20 03:15:22;;;;;;;15.60;2.53;;;3.40;99.90;;;;;;5015576;28;20251;-71
2022/01/20 03:17:48;;;;;;;12.67;2.90;;;3.40;99.90;;;;;;4996860;28;20215;-71
2022/01/20 03:20:13;;;;;;;16.67;2.60;;;3.40;99.90;;;;;;4997045;28;20300;-71
2022/01/20 03:22:39;;;;;;;12.40;2.07;;;3.40;99.90;;;;;;5014797;28;20213;-71
2022/01/20 03:25:05;;;;;;;13.70;3.00;;;3.40;99.90;;;;;;5014571;28;20599;-71
2022/01/20 03:27:31;;;;;;;9.07;2.07;;;3.40;99.90;;;;;;5014868;28;20212;-71
2022/01/20 03:29:57;;;;;;;19.00;2.73;;;3.40;99.90;;;;;;5014292;28;20801;-71
2022/01/20 03:32:22;;;;;;;18.50;3.40;;;3.50;99.90;;;;;;4997386;28;20224;-75
2022/01/20 03:34:48;;;;;;;14.43;2.37;;;3.60;99.90;;;;;;5014386;28;20208;-75
2022/01/20 03:37:14;;;;;;;10.20;2.03;;;3.50;99.90;;;;;;5014456;28;20275;-74
2022/01/20 03:39:39;;;;;;;16.60;2.53;;;3.50;99.90;;;;;;5009346;28;20200;-75
2022/01/20 03:42:05;;;;;;;8.27;2.27;;;3.60;99.90;;;;;;5014211;28;20190;-71
2022/01/20 03:44:30;;;;;;;12.33;2.53;;;3.50;99.90;;;;;;5014096;28;20236;-71
2022/01/20 03:46:58;;;;;;;8.20;2.57;;;3.60;99.90;;;;;;4996726;28;20220;-72
2022/01/20 03:49:38;;;;;;;17.90;2.90;;;3.60;99.90;;;;;;5013624;28;20307;-73
2022/01/20 03:52:05;;;;;;;12.73;3.27;;;3.50;99.90;;;;;;5014319;28;20688;-74
2022/01/20 03:54:31;;;;;;;9.83;2.07;;;3.60;99.90;;;;;;4996585;28;20185;-73
2022/01/20 03:56:56;;;;;;;11.90;2.07;;;3.60;99.90;;;;;;4996711;28;20289;-73
2022/01/20 03:59:22;;;;;;;13.90;2.63;;;3.60;99.90;;;;;;5013615;28;20753;-71
2022/01/20 04:01:48;;;;;;;14.83;2.93;;;3.70;99.90;;;;;;5014360;28;20326;-71
2022/01/20 04:04:13;;;;;;;22.70;3.00;;;3.80;99.90;;;;;;5014013;28;20684;-71
2022/01/20 04:06:39;;;;;;;12.47;2.70;;;3.80;99.90;;;;;;5013765;28;20289;-73
2022/01/20 04:09:05;;;;;;;13.47;3.30;;;3.70;99.90;;;;;;5013923;28;20169;-73
2022/01/20 04:11:31;;;;;;;14.70;3.30;;;3.70;99.90;;;;;;5013486;28;20206;-73
2022/01/20 04:13:57;;;;;;;17.53;3.10;;;3.70;99.90;;;;;;5013595;28;20296;-73
2022/01/20 04:16:34;;;;;;;15.70;3.37;;;3.70;99.90;;;;;;5013407;28;20291;-73
2022/01/20 04:19:02;;;;;;;11.73;2.47;;;3.70;99.90;;;;;;5013117;28;20225;-73
2022/01/20 04:21:29;;;;;;;9.33;2.60;;;3.70;99.90;;;;;;5014048;28;20198;-73
2022/01/20 04:23:57;;;;;;;21.03;2.57;;;3.70;99.90;;;;;;5013353;28;20217;-72
2022/01/20 04:26:23;;;;;;;18.83;3.13;;;3.80;99.90;;;;;;5013356;28;20286;-73
2022/01/20 04:28:53;;;;;;;7.77;1.73;;;3.60;99.90;;;;;;5013055;28;20207;-72
2022/01/20 04:31:20;;;;;;;5.53;1.40;;;3.20;99.90;;;;;;5013919;28;20656;-73
2022/01/20 04:33:45;;;;;;;6.43;1.30;;;3.00;99.90;;;;;;4995699;28;20177;-72
2022/01/20 04:36:11;;;;;;;7.97;1.17;;;2.70;99.90;;;;;;5013924;28;20201;-72
2022/01/20 04:38:37;;;;;;;3.83;1.30;;;2.40;99.90;;;;;;5012626;28;20223;-72
2022/01/20 04:41:02;;;;;;;6.00;1.07;;;2.20;99.90;;;;;;5012699;28;20205;-73
2022/01/20 04:43:28;;;;;;;3.80;1.53;;;2.10;99.90;;;;;;5012995;28;20213;-73
2022/01/20 04:46:03;;;;;;;4.33;1.47;;;1.90;99.90;;;;;;4995479;28;20183;-73
2022/01/20 04:48:45;;;;;;;10.07;1.73;;;1.80;99.90;;;;;;5013111;28;20183;-72
2022/01/20 04:57:21;;;;;;;13.03;2.57;;;1.90;99.90;;;;;;4927227;29;20211;-73
2022/01/20 04:59:49;;;;;;;10.63;2.17;;;1.90;99.90;;;;;;4932471;29;20761;-72
2022/01/20 05:02:15;;;;;;;10.13;2.77;;;2.00;99.90;;;;;;4973389;28;20781;-73
2022/01/20 05:04:41;;;;;;;5.67;1.90;;;2.10;99.90;;;;;;5012530;28;20693;-73
2022/01/20 05:07:08;;;;;;;10.07;2.27;;;2.20;99.90;;;;;;4995195;28;20217;-73
2022/01/20 05:09:34;;;;;;;9.93;2.07;;;2.20;99.90;;;;;;4994743;28;20185;-73
2022/01/20 05:12:03;;;;;;;7.83;2.37;;;2.30;99.90;;;;;;5012516;28;20295;-73
2022/01/20 05:14:29;;;;;;;10.70;2.07;;;2.30;99.90;;;;;;5011795;28;20693;-73
2022/01/20 05:16:56;;;;;;;12.10;2.03;;;2.40;99.90;;;;;;4995058;28;20211;-73
2022/01/20 05:19:27;;;;;;;8.80;2.53;;;2.40;99.90;;;;;;5011769;28;20247;-73
2022/01/20 05:21:53;;;;;;;4.27;1.53;;;2.40;99.90;;;;;;5012593;28;20276;-73
2022/01/20 05:24:20;;;;;;;9.13;1.90;;;2.40;99.90;;;;;;5012707;28;20252;-73
2022/01/20 05:26:46;;;;;;;12.30;2.00;;;2.40;99.90;;;;;;4986581;28;20208;-73
2022/01/20 05:29:12;;;;;;;7.00;1.90;;;2.40;99.90;;;;;;5010885;28;20255;-73
2022/01/20 05:31:37;;;;;;;7.60;1.77;;;2.40;99.90;;;;;;5012269;28;20273;-73
2022/01/20 05:34:03;;;;;;;9.27;2.30;;;2.40;99.90;;;;;;4994445;28;20219;-73
2022/01/20 05:36:28;;;;;;;10.53;2.07;;;2.50;99.90;;;;;;5012641;28;20575;-73
2022/01/20 05:38:54;;;;;;;8.33;2.07;;;2.50;99.90;;;;;;4994178;28;20576;-73
2022/01/20 05:41:20;;;;;;;7.67;2.13;;;2.50;99.90;;;;;;4991014;28;20351;-73
2022/01/20 05:43:45;;;;;;;9.20;2.10;;;2.50;99.90;;;;;;5011828;28;20287;-73
2022/01/20 05:46:13;;;;;;;7.60;2.20;;;2.50;99.90;;;;;;5011939;28;20220;-73
2022/01/20 05:48:46;;;;;;;8.50;2.10;;;2.50;99.90;;;;;;5058946;23;20235;-75
2022/01/20 05:51:11;;;;;;;8.33;1.87;;;2.50;99.90;;;;;;5053380;28;20217;-75
2022/01/20 05:53:37;;;;;;;11.90;2.50;;;2.50;99.90;;;;;;5051006;28;20265;-74
2022/01/20 05:56:02;;;;;;;13.70;2.70;;;2.60;99.90;;;;;;5050764;28;20583;-75
2022/01/20 05:58:29;;;;;;;13.53;3.03;;;2.60;99.90;;;;;;5065110;28;20725;-75
2022/01/20 06:00:55;;;;;;;7.47;1.87;;;2.70;99.90;;;;;;5072064;28;20171;-75
2022/01/20 06:03:36;;;;;;;6.87;2.27;;;2.70;99.90;;;;;;5073001;28;20539;-77
2022/01/20 06:06:02;;;;;;;10.80;2.20;;;2.70;99.90;;;;;;5065979;28;20280;-75
2022/01/20 06:08:28;;;;;;;11.27;2.00;;;2.80;99.90;;;;;;5073406;28;20229;-74
2022/01/20 06:10:53;;;;;;;9.20;1.87;;;2.80;99.90;;;;;;5073867;28;20210;-75
2022/01/20 06:13:19;;;;;;;4.70;1.67;;;2.80;99.90;;;;;;5073183;28;20329;-75
2022/01/20 06:15:45;;;;;;;13.43;2.10;;;2.80;99.90;;;;;;5073089;28;20216;-75
2022/01/20 06:18:11;;;;;;;7.10;1.93;;;2.80;99.90;;;;;;5071731;28;20210;-74
2022/01/20 06:20:38;;;;;;;7.80;1.77;;;2.70;99.90;;;;;;5073137;28;20218;-75
2022/01/20 06:23:10;;;;;;;7.53;1.77;;;2.70;99.90;;;;;;5073588;28;20234;-74
2022/01/20 06:25:36;;;;;;;7.57;1.80;;;2.70;99.90;;;;;;5071651;28;20215;-73
2022/01/20 06:28:02;;;;;;;9.00;2.00;;;2.60;99.90;;;;;;5069199;28;20677;-75
2022/01/20 06:30:29;;;;;;;8.40;1.83;;;2.50;99.90;;;;;;5074004;28;20266;-75
2022/01/20 06:32:54;;;;;;;9.77;2.83;;;2.50;99.90;;;;;;5075490;28;20710;-76
2022/01/20 06:35:20;;;;;;;4.60;1.10;;;2.40;99.90;;;;;;5074278;28;20214;-75
2022/01/20 06:37:46;;;;;;;5.63;2.50;;;2.30;99.90;;;;;;5072821;28;20271;-76
2022/01/20 06:40:12;;;;;;;8.73;1.77;;;2.20;99.90;;;;;;5072217;28;20209;-75
2022/01/20 06:42:38;;;;;;;9.20;1.50;;;2.20;99.90;;;;;;5074595;28;20206;-75
2022/01/20 06:45:06;;;;;;;5.67;1.50;;;2.10;99.90;;;;;;5073626;28;20211;-75
2022/01/20 06:47:32;;;;;;;8.47;1.40;;;2.10;99.90;;;;;;5073504;28;20241;-75
2022/01/20 06:49:57;;;;;;;12.47;1.80;;;2.10;99.90;;;;;;5073619;28;20216;-75
2022/01/20 06:52:23;;;;;;;13.50;1.77;;;2.10;99.90;;;;;;5072290;28;20270;-74
2022/01/20 06:54:48;;;;;;;5.17;1.00;;;2.10;99.90;;;;;;5072070;28;20678;-76
2022/01/20 06:57:14;;;;;;;7.47;1.60;;;2.00;99.90;;;;;;5072805;28;20235;-75
2022/01/20 06:59:39;;;;;;;8.53;2.07;;;2.00;99.90;;;;;;5064003;28;20218;-75
2022/01/20 07:02:05;;;;;;;5.73;1.17;;;2.00;99.90;;;;;;5071055;28;20211;-76
2022/01/20 07:04:32;;;;;;;6.63;1.60;;;2.00;99.90;;;;;;5069090;28;20210;-77
2022/01/20 07:06:58;;;;;;;9.90;1.53;;;2.00;99.90;;;;;;5069527;28;20189;-75
2022/01/20 07:09:23;;;;;;;10.50;1.63;;;2.00;99.90;;;;;;5071107;28;20179;-75
2022/01/20 07:11:49;;;;;;;6.53;1.37;;;2.00;99.90;;;;;;5071597;28;20632;-76
2022/01/20 07:14:14;;;;;;;10.63;1.90;;;2.10;99.90;;;;;;5069424;28;20214;-76
2022/01/20 07:16:40;;;;;;;4.67;1.33;;;2.10;99.90;;;;;;5071076;28;20242;-75
2022/01/20 07:19:06;;;;;;;11.17;1.47;;;2.10;99.90;;;;;;5071380;28;20283;-76
2022/01/20 07:21:31;;;;;;;7.00;1.40;;;2.20;99.90;;;;;;5071531;28;20581;-77
2022/01/20 07:23:57;;;;;;;6.20;1.33;;;2.20;99.90;;;;;;5069364;28;20217;-76
2022/01/20 07:26:22;;;;;;;5.57;1.47;;;2.20;99.90;;;;;;5070654;28;20215;-76
2022/01/20 07:28:48;;;;;;;6.43;1.80;;;2.20;99.90;;;;;;5062893;28;20231;-76
2022/01/20 07:31:16;;;;;;;9.67;1.67;;;2.20;99.90;;;;;;5070368;28;20298;-76
2022/01/20 07:33:42;;;;;;;8.13;1.80;;;2.20;99.90;;;;;;5073962;28;20175;-75
2022/01/20 07:36:08;;;;;;;7.57;1.90;;;2.20;99.90;;;;;;5071507;28;20181;-75
2022/01/20 07:38:33;;;;;;;7.70;1.77;;;2.10;99.90;;;;;;5068803;28;20211;-76
2022/01/20 07:40:59;;;;;;;10.23;1.43;;;2.10;99.90;;;;;;5070570;28;20209;-76
2022/01/20 07:43:24;;;;;;;10.87;2.63;;;2.20;99.90;;;;;;5070586;28;20214;-75
2022/01/20 07:45:50;;;;;;;8.30;1.60;;;2.20;99.90;;;;;;5070714;28;20171;-76
2022/01/20 07:48:15;;;;;;;10.30;2.00;;;2.20;99.90;;;;;;5070550;28;20215;-76
2022/01/20 07:50:41;;;;;;;9.13;1.70;;;2.20;99.90;;;;;;5070771;28;20353;-75
2022/01/20 07:53:07;;;;;;;9.87;2.03;;;2.30;99.90;;;;;;5073318;28;20360;-75
2022/01/20 07:55:33;;;;;;;7.47;2.70;;;2.30;99.90;;;;;;5073749;28;20272;-76
2022/01/20 07:57:58;;;;;;;12.47;1.87;;;2.40;99.90;;;;;;5069563;28;20234;-75
2022/01/20 08:00:24;;;;;;;8.17;2.00;;;2.90;99.90;;;;;;5072729;28;20193;-76
2022/01/20 08:02:50;;;;;;;10.03;2.03;;;3.50;99.90;;;;;;5075472;28;20223;-76
2022/01/20 08:05:15;;;;;;;7.50;2.03;;;4.10;99.90;;;;;;5073805;28;20225;-76
2022/01/20 08:07:41;;;;;;;9.13;2.00;;;4.60;99.90;;;;;;5073530;28;20335;-76
2022/01/20 08:10:07;;;;;;;9.63;2.10;;;5.00;99.90;;;;;;5075052;28;20238;-76
2022/01/20 08:12:33;;;;;;;8.80;2.30;;;5.30;99.90;;;;;;5075614;28;20237;-77
2022/01/20 08:14:59;;;;;;;9.37;2.57;;;5.20;99.90;;;;;;5075085;28;20207;-76
2022/01/20 08:17:26;;;;;;;15.50;2.83;;;5.20;99.90;;;;;;5075407;28;20248;-76
2022/01/20 08:19:51;;;;;;;18.17;3.40;;;5.10;99.90;;;;;;5074286;28;20223;-76
2022/01/20 08:22:17;;;;;;;9.73;2.87;;;4.70;99.90;;;;;;5073985;28;20224;-75
2022/01/20 08:24:43;;;;;;;10.67;2.20;;;4.30;99.90;;;;;;5073412;28;20177;-76
2022/01/20 08:27:09;;;;;;;7.63;2.10;;;3.90;99.90;;;;;;5077227;28;20246;-76
2022/01/20 08:29:35;;;;;;;9.33;2.70;;;3.60;99.90;;;;;;5067026;28;20249;-75
2022/01/20 08:32:01;;;;;;;11.30;2.63;;;3.50;99.90;;;;;;5075075;28;20673;-75
2022/01/20 08:34:26;;;;;;;12.60;3.10;;;3.60;99.90;;;;;;5074944;28;20349;-75
2022/01/20 08:36:55;;;;;;;13.10;3.37;;;4.00;99.90;;;;;;5074486;28;20220;-75
2022/01/20 08:42:00;;;;;;;12.73;3.07;;;3.90;99.90;;;;;;5073723;28;20208;-75
2022/01/20 08:44:26;;;;;;;9.00;2.10;;;4.00;99.90;;;;;;5071581;28;20767;-75
2022/01/20 08:46:53;;;;;;;12.60;3.33;;;3.90;99.90;;;;;;5071770;28;20236;-76
2022/01/20 08:49:20;;;;;;;8.67;2.00;;;3.90;99.90;;;;;;5071674;28;20207;-75
2022/01/20 08:51:46;;;;;;;14.33;2.30;;;4.10;99.90;;;;;;5073274;28;20181;-75
2022/01/20 08:54:13;;;;;;;11.37;2.47;;;4.00;99.90;;;;;;5072120;28;20174;-76
2022/01/20 08:56:39;;;;;;;12.23;2.30;;;4.30;99.90;;;;;;5071591;28;20207;-76
2022/01/20 08:59:06;;;;;;;11.40;2.73;;;4.80;99.90;;;;;;5067058;28;20215;-77
2022/01/20 09:01:37;;;;;;;12.77;3.30;;;5.00;99.90;;;;;;5073018;28;20294;-75
2022/01/20 09:04:03;;;;;;;12.87;2.53;;;4.90;99.90;;;;;;5072826;28;20214;-74
2022/01/20 09:06:29;;;;;;;14.47;2.67;;;5.10;99.90;;;;;;5073189;28;20183;-76
2022/01/20 09:08:55;;;;;;;12.97;2.57;;;4.70;99.90;;;;;;5072141;28;20200;-75
2022/01/20 09:11:30;;;;;;;12.80;3.00;;;4.70;99.90;;;;;;5072662;28;20213;-76
2022/01/20 09:16:39;;;;;;;10.03;2.47;;;4.60;99.90;;;;;;5072428;28;20720;-77
2022/01/20 09:19:04;;;;;;;12.27;2.57;;;4.30;99.90;;;;;;5072016;28;20217;-76
2022/01/20 09:21:30;;;;;;;14.87;2.93;;;4.10;99.90;;;;;;5072384;28;20203;-76
2022/01/20 09:23:56;;;;;;;11.77;2.67;;;3.90;99.90;;;;;;5070948;28;20703;-76
2022/01/20 09:26:22;;;;;;;10.13;2.43;;;3.80;99.90;;;;;;5072610;28;20208;-75
2022/01/20 09:28:48;;;;;;;15.67;3.57;;;3.70;99.90;;;;;;5063918;28;20209;-76
2022/01/20 09:31:14;;;;;;;16.17;2.90;;;3.70;99.90;;;;;;5073161;28;20229;-75
2022/01/20 09:33:40;;;;;;;12.47;3.30;;;3.50;99.90;;;;;;5071409;28;20231;-76
2022/01/20 09:36:12;;;;;;;12.73;2.50;;;3.60;99.90;;;;;;5072113;28;20659;-76
2022/01/20 09:38:37;;;;;;;12.87;2.70;;;3.50;99.90;;;;;;5071598;28;20224;-76
2022/01/20 09:41:04;;;;;;;14.37;3.30;;;3.40;99.90;;;;;;5072147;28;20585;-76
2022/01/20 09:43:31;;;;;;;10.13;3.33;;;3.30;99.90;;;;;;5072437;28;20215;-76
2022/01/20 09:45:58;;;;;;;15.83;3.53;;;3.20;99.90;;;;;;5070980;28;20175;-75
2022/01/20 09:48:24;;;;;;;14.23;2.73;;;3.20;99.90;;;;;;5072232;28;20214;-76
2022/01/20 09:50:51;;;;;;;17.07;3.67;;;3.30;99.90;;;;;;5070688;28;20210;-76
2022/01/20 09:53:17;;;;;;;21.87;3.87;;;3.40;99.90;;;;;;5071695;28;20680;-76
2022/01/20 09:55:42;;;;;;;12.73;3.07;;;3.40;99.90;;;;;;5071512;28;20218;-76
2022/01/20 09:58:10;;;;;;;9.30;2.90;;;3.40;99.90;;;;;;5069626;28;20245;-76
2022/01/20 10:00:38;;;;;;;17.47;2.97;;;3.40;99.90;;;;;;5071820;28;20182;-76
2022/01/20 10:03:06;;;;;;;10.67;2.30;;;3.40;99.90;;;;;;5070663;28;20203;-76
2022/01/20 10:05:34;;;;;;;12.87;3.60;;;3.50;99.90;;;;;;5070251;28;20340;-77
2022/01/20 10:08:05;;;;;;;13.13;2.80;;;3.50;99.90;;;;;;5070440;28;20593;-76
2022/01/20 10:10:43;;;;;;;9.57;2.57;;;3.60;99.90;;;;;;5071011;28;20214;-77
2022/01/20 10:13:10;;;;;;;14.83;3.23;;;3.70;99.90;;;;;;5070384;28;20236;-75
2022/01/20 10:15:37;;;;;;;12.07;3.13;;;3.70;99.90;;;;;;5070956;28;20182;-77
2022/01/20 10:18:14;;;;;;;16.00;2.97;;;3.80;99.90;;;;;;5070963;28;20218;-76
2022/01/20 10:20:56;;;;;;;17.00;3.17;;;3.70;99.90;;;;;;5070914;28;20576;-76
2022/01/20 10:23:34;;;;;;;17.07;3.53;;;3.80;99.90;;;;;;5069831;28;20208;-75
2022/01/20 10:26:20;;;;;;;12.70;3.27;;;3.80;99.90;;;;;;5071478;28;20277;-76
2022/01/20 10:28:58;;;;;;;12.60;3.07;;;3.80;99.90;;;;;;5062470;28;20657;-76
2022/01/20 10:31:35;;;;;;;11.07;2.67;;;3.90;99.90;;;;;;5070791;28;20213;-75
2022/01/20 10:34:02;;;;;;;18.93;3.40;;;4.00;99.90;;;;;;5071146;28;20215;-76
2022/01/20 10:36:28;;;;;;;17.50;3.23;;;4.00;99.90;;;;;;5071212;28;20238;-76
2022/01/20 10:38:56;;;;;;;21.03;3.90;;;3.90;99.90;;;;;;5069466;28;20209;-76
2022/01/20 10:41:28;;;;;;;11.87;3.07;;;3.90;99.90;;;;;;5070814;28;20212;-75
2022/01/20 10:44:03;;;;;;;12.77;3.30;;;3.90;99.90;;;;;;5071178;28;20614;-76
2022/01/20 10:46:40;;;;;;;18.07;3.27;;;4.00;99.90;;;;;;5070473;28;20687;-76
2022/01/20 10:49:06;;;;;;;15.40;3.40;;;4.00;99.90;;;;;;5070586;28;20298;-76
2022/01/20 10:51:31;;;;;;;15.93;3.70;;;4.10;99.90;;;;;;5071204;28;20629;-77
2022/01/20 10:54:02;;;;;;;12.80;3.17;;;4.10;99.90;;;;;;5069612;28;20257;-76
2022/01/20 10:56:28;;;;;;;22.60;3.87;;;4.00;99.90;;;;;;5069354;28;20199;-76
2022/01/20 10:58:54;;;;;;;15.47;3.90;;;4.10;99.90;;;;;;5069036;28;20760;-75
2022/01/20 11:01:19;;;;;;;15.87;3.43;;;4.10;99.90;;;;;;5070718;28;20213;-76
2022/01/20 11:03:45;;;;;;;18.57;3.53;;;3.90;99.90;;;;;;5069140;28;20550;-76
2022/01/20 11:06:11;;;;;;;10.73;3.10;;;3.80;99.90;;;;;;5071095;28;20180;-76
2022/01/20 11:08:39;;;;;;;23.80;3.33;;;3.80;99.90;;;;;;5070511;28;20228;-76
2022/01/20 11:11:05;;;;;;;14.80;3.43;;;3.90;99.90;;;;;;5071435;28;20684;-77
2022/01/20 11:13:30;;;;;;;15.97;3.40;;;3.90;99.90;;;;;;5069450;28;20219;-75
2022/01/20 11:15:56;;;;;;;9.73;2.60;;;3.80;99.90;;;;;;5069509;28;20169;-75
2022/01/20 11:18:27;;;;;;;15.47;3.10;;;3.80;99.90;;;;;;5069299;28;20217;-75
2022/01/20 11:20:54;;;;;;;17.50;3.50;;;3.90;99.90;;;;;;5070892;28;20206;-76
2022/01/20 11:23:19;;;;;;;18.60;3.57;;;4.00;99.90;;;;;;5069331;28;20215;-75
2022/01/20 11:25:45;;;;;;;8.63;2.67;;;4.00;99.90;;;;;;5069203;28;20210;-74
2022/01/20 11:28:20;;;;;;;14.90;2.77;;;3.90;99.90;;;;;;5068621;28;20221;-75
2022/01/20 11:31:03;;;;;;;14.33;2.60;;;3.90;99.90;;;;;;5066152;28;20174;-75
2022/01/20 11:33:40;;;;;;;11.77;2.70;;;4.10;99.90;;;;;;5074737;28;20168;-75
2022/01/20 11:36:09;;;;;;;9.50;2.57;;;4.00;99.90;;;;;;5073419;28;20235;-75
2022/01/20 11:38:46;;;;;;;18.47;2.87;;;4.00;99.90;;;;;;5073666;28;20239;-75
2022/01/20 11:41:17;;;;;;;14.33;3.33;;;4.10;99.90;;;;;;5073460;28;20618;-75
2022/01/20 11:43:48;;;;;;;11.30;2.50;;;4.40;99.90;;;;;;5074049;28;20597;-75
2022/01/20 11:46:24;;;;;;;13.50;2.50;;;4.50;99.90;;;;;;5072779;28;20224;-75
2022/01/20 11:49:02;;;;;;;10.37;2.70;;;4.60;99.90;;;;;;5095659;23;20237;-71
2022/01/20 11:51:59;;;;;;;11.47;2.53;;;4.70;99.90;;;;;;5094454;28;20188;-71
2022/01/20 11:54:35;;;;;;;9.33;2.50;;;4.60;99.90;;;;;;5094852;28;20290;-71
2022/01/20 11:57:29;;;;;;;8.00;2.53;;;4.50;99.90;;;;;;5094939;28;20224;-71
2022/01/20 12:00:00;;;;;;;10.83;2.60;;;4.70;99.90;;;;;;5066938;28;20585;-72
2022/01/20 12:02:37;;;;;;;13.33;2.77;;;4.60;99.90;;;;;;5074356;28;20221;-72
2022/01/20 12:05:26;;;;;;;10.17;2.10;;;4.60;99.90;;;;;;5075708;28;20337;-72
2022/01/20 12:08:03;;;;;;;11.77;2.00;;;4.60;99.90;;;;;;5059714;28;20235;-71
2022/01/20 12:10:28;;;;;;;10.33;2.63;;;4.30;99.90;;;;;;5081298;28;20347;-72
2022/01/20 12:13:04;;;;;;;13.10;3.50;;;4.40;99.90;;;;;;5079803;28;20188;-72
2022/01/20 12:15:30;;;;;;;12.53;3.13;;;4.50;99.90;;;;;;5061917;28;20179;-72
2022/01/20 12:17:56;;;;;;;11.17;3.10;;;4.50;99.90;;;;;;5079907;28;20303;-72
2022/01/20 12:20:23;;;;;;;12.07;2.60;;;4.60;99.90;;;;;;5076011;28;20212;-72
2022/01/20 12:22:50;;;;;;;13.53;3.03;;;4.60;99.90;;;;;;5074305;28;20213;-72
2022/01/20 12:25:26;;;;;;;10.90;2.80;;;4.60;99.90;;;;;;5073827;28;20298;-72
2022/01/20 12:28:01;;;;;;;13.53;3.03;;;4.70;99.90;;;;;;5072511;28;20196;-72
2022/01/20 12:30:27;;;;;;;11.17;2.60;;;4.70;99.90;;;;;;5073054;28;20172;-72
2022/01/20 12:33:13;;;;;;;13.63;3.37;;;4.70;99.90;;;;;;5074922;28;20197;-72
2022/01/20 12:35:53;;;;;;;14.73;3.27;;;4.60;99.90;;;;;;5074285;28;20249;-72
2022/01/20 12:38:27;;;;;;;13.53;2.77;;;4.40;99.90;;;;;;5075195;28;20207;-72
2022/01/20 12:41:03;;;;;;;12.37;2.23;;;4.30;99.90;;;;;;5073708;28;20200;-72
2022/01/20 12:43:46;;;;;;;12.73;3.37;;;4.10;99.90;;;;;;5055138;28;20708;-70
2022/01/20 12:46:14;;;;;;;19.57;3.70;;;4.10;99.90;;;;;;5055015;28;20212;-71
2022/01/20 12:49:11;;;;;;;14.57;2.97;;;4.00;99.90;;;;;;5072640;28;20222;-71
2022/01/20 12:51:39;;;;;;;14.40;3.30;;;4.00;99.90;;;;;;5073554;28;20174;-71
2022/01/20 12:54:27;;;;;;;15.83;3.20;;;3.90;99.90;;;;;;5073015;28;20213;-72
2022/01/20 12:56:58;;;;;;;12.57;3.10;;;3.80;99.90;;;;;;5072985;28;20204;-71
2022/01/20 12:59:29;;;;;;;8.90;2.40;;;3.70;99.90;;;;;;5067500;28;20293;-71
2022/01/20 13:02:20;;;;;;;13.17;3.10;;;3.70;99.90;;;;;;5054997;28;20195;-71
2022/01/20 13:04:46;;;;;;;14.23;2.70;;;3.70;99.90;;;;;;5072788;28;20297;-71
2022/01/20 13:07:15;;;;;;;13.50;2.43;;;3.70;99.90;;;;;;5055447;28;20224;-71
2022/01/20 13:09:46;;;;;;;13.17;2.73;;;3.70;99.90;;;;;;5072376;28;20179;-71
2022/01/20 13:12:14;;;;;;;16.40;3.10;;;3.70;99.90;;;;;;5073528;28;20167;-71
2022/01/20 13:14:46;;;;;;;9.33;3.00;;;3.80;99.90;;;;;;5054179;28;20206;-71
2022/01/20 13:17:23;;;;;;;10.63;2.97;;;3.80;99.90;;;;;;5054496;28;20216;-71
2022/01/20 13:19:50;;;;;;;14.20;2.63;;;3.70;99.90;;;;;;5054102;28;20243;-71
2022/01/20 13:22:40;;;;;;;11.47;3.17;;;3.80;99.90;;;;;;5072666;28;20687;-71
2022/01/20 13:25:15;;;;;;;12.00;3.33;;;3.70;99.90;;;;;;5054220;28;20232;-71
2022/01/20 13:27:58;;;;;;;14.93;3.40;;;3.70;99.90;;;;;;5053112;28;20263;-70
2022/01/20 13:30:39;;;;;;;18.87;2.83;;;3.60;99.90;;;;;;5051556;28;20183;-73
2022/01/20 13:33:06;;;;;;;12.83;2.40;;;3.60;99.90;;;;;;5054649;28;20333;-71
2022/01/20 13:35:41;;;;;;;14.47;2.20;;;3.60;99.90;;;;;;5071945;28;20238;-71
2022/01/20 13:38:08;;;;;;;14.43;2.80;;;3.60;99.90;;;;;;5053787;28;20212;-73
2022/01/20 13:40:35;;;;;;;8.57;2.47;;;3.60;99.90;;;;;;5054002;28;20582;-71
2022/01/20 13:45:44;;;;;;;13.13;2.73;;;3.60;99.90;;;;;;5072027;28;20240;-71
2022/01/20 13:48:13;;;;;;;8.53;2.23;;;3.60;99.90;;;;;;5053975;28;20254;-71
2022/01/20 13:50:41;;;;;;;12.30;3.17;;;3.60;99.90;;;;;;5070955;28;20209;-71
2022/01/20 13:53:16;;;;;;;16.93;2.67;;;3.70;99.90;;;;;;5053901;28;20273;-71
2022/01/20 13:55:43;;;;;;;8.40;2.47;;;3.60;99.90;;;;;;5071437;28;20236;-72
2022/01/20 13:58:25;;;;;;;8.63;2.67;;;3.60;99.90;;;;;;5048627;28;20228;-72
2022/01/20 14:00:51;;;;;;;10.73;2.30;;;3.50;99.90;;;;;;5053514;28;20174;-72
2022/01/20 14:03:17;;;;;;;13.40;2.73;;;3.50;99.90;;;;;;5054318;28;20183;-71